createdAt,value
2022-12-04T00:15:51.921Z,-0.26
2022-12-04T00:35:52.124Z,-0.27
2022-12-04T00:55:51.866Z,-0.3
2022-12-04T01:15:51.840Z,-0.32
2022-12-04T01:35:51.837Z,-0.3
2022-12-04T01:55:51.768Z,-0.27
2022-12-04T02:15:51.785Z,-0.27
2022-12-04T02:35:51.720Z,-0.26
2022-12-04T02:55:51.735Z,-0.26
2022-12-04T03:15:51.685Z,-0.26
2022-12-04T03:35:51.660Z,-0.2
2022-12-04T03:55:51.622Z,-0.15
2022-12-04T04:15:51.713Z,-0.15
2022-12-04T04:35:51.612Z,-0.13
2022-12-04T04:55:51.664Z,-0.11
2022-12-04T05:15:51.642Z,-0.09
2022-12-04T05:35:51.602Z,-0.07
2022-12-04T05:55:51.503Z,-0.05
2022-12-04T06:15:51.519Z,-0.02
2022-12-04T06:35:51.450Z,0
2022-12-04T06:55:51.426Z,0.06
2022-12-04T07:15:51.533Z,0.1
2022-12-04T07:35:51.395Z,0.14
2022-12-04T07:55:51.361Z,0.2
2022-12-04T08:15:51.340Z,0.25
2022-12-04T08:35:51.337Z,0.3
2022-12-04T08:55:51.280Z,0.35
2022-12-04T09:15:51.359Z,0.4
2022-12-04T09:35:51.241Z,0.47
2022-12-04T09:55:51.264Z,0.56
2022-12-04T10:15:51.313Z,0.65
2022-12-04T10:35:51.185Z,0.72
2022-12-04T10:55:51.164Z,0.8
2022-12-04T11:15:51.269Z,0.88
2022-12-04T12:35:51.151Z,1.03
2022-12-04T13:15:50.998Z,1.11
2022-12-04T14:15:50.994Z,1.21
2022-12-04T14:35:50.906Z,1.26
2022-12-04T14:55:50.864Z,1.29
2022-12-04T15:15:57.880Z,1.33
2022-12-04T15:35:57.887Z,1.39
2022-12-04T15:55:50.746Z,1.44
2022-12-04T16:15:50.773Z,1.48
2022-12-04T16:35:57.720Z,1.54
2022-12-04T16:55:57.672Z,1.61
2022-12-04T17:15:50.702Z,1.7
2022-12-04T17:35:50.661Z,1.77
2022-12-04T18:35:56.638Z,2
2022-12-04T18:55:57.576Z,2.06
2022-12-04T19:15:57.486Z,2.17
2022-12-04T19:55:50.461Z,2.31
2022-12-04T20:15:50.432Z,2.48
2022-12-04T20:35:57.394Z,2.49
2022-12-04T20:55:50.471Z,2.5
2022-12-04T21:16:04.458Z,2.58
2022-12-04T21:35:50.290Z,2.64
2022-12-04T21:55:57.282Z,2.68
2022-12-04T22:15:50.289Z,2.67
2022-12-04T22:35:50.201Z,2.64
2022-12-04T22:55:50.246Z,2.62
2022-12-04T23:15:57.251Z,2.61
2022-12-04T23:35:50.185Z,2.59
2022-12-04T23:55:50.090Z,2.58
